createdAt,value
2023-02-05T00:00:10.395Z,0.55
2023-02-05T00:02:38.776Z,0.03
2023-02-05T00:05:10.928Z,0.20
2023-02-05T00:07:38.819Z,-0.25
2023-02-05T00:10:30.722Z,0.03
2023-02-05T00:12:58.796Z,0.07
2023-02-05T00:15:27.021Z,0.21
2023-02-05T00:17:56.980Z,0.36
2023-02-05T00:20:24.855Z,0.27
2023-02-05T00:22:53.959Z,0.23
2023-02-05T00:25:33.399Z,0.04
2023-02-05T00:28:00.799Z,0.01
2023-02-05T00:33:21.908Z,0.06
2023-02-05T00:35:51.037Z,0.16
2023-02-05T00:38:18.779Z,-0.28
2023-02-05T00:40:46.805Z,-0.38
2023-02-05T00:43:14.886Z,-0.24
2023-02-05T00:45:47.082Z,-0.19
2023-02-05T00:48:14.784Z,-0.10
2023-02-05T00:50:42.894Z,-0.18
2023-02-05T00:53:10.704Z,-0.15
2023-02-05T00:55:39.249Z,-0.04
2023-02-05T00:58:11.778Z,0.09
2023-02-05T01:00:43.953Z,-0.27
2023-02-05T01:03:11.421Z,-0.07
2023-02-05T01:05:44.655Z,-0.29
2023-02-05T01:08:13.674Z,-0.11
2023-02-05T01:10:46.711Z,-0.17
2023-02-05T01:13:17.814Z,-0.45
2023-02-05T01:15:46.888Z,-0.28
2023-02-05T01:18:15.082Z,-0.25
2023-02-05T01:20:46.901Z,-0.29
2023-02-05T01:23:18.864Z,-0.37
2023-02-05T01:25:46.893Z,-0.19
2023-02-05T01:28:14.970Z,-0.44
2023-02-05T01:30:52.460Z,-0.37
2023-02-05T01:33:20.876Z,-0.32
2023-02-05T01:35:48.794Z,-0.35
2023-02-05T01:38:16.862Z,-0.34
2023-02-05T01:40:44.723Z,-0.29
2023-02-05T01:43:14.166Z,-0.52
2023-02-05T01:46:03.959Z,-0.56
2023-02-05T01:49:03.676Z,-0.44
2023-02-05T01:51:33.575Z,-0.41
2023-02-05T01:54:01.034Z,-0.49
2023-02-05T01:56:43.558Z,-0.42
2023-02-05T01:59:16.522Z,-0.39
2023-02-05T02:01:44.873Z,-0.37
2023-02-05T02:04:17.058Z,-0.56
2023-02-05T02:06:48.746Z,-0.42
2023-02-05T02:09:16.813Z,-0.42
2023-02-05T02:11:48.812Z,-0.66
2023-02-05T02:14:17.614Z,-0.49
2023-02-05T02:16:44.968Z,-0.32
2023-02-05T02:19:32.519Z,-0.45
2023-02-05T02:22:55.655Z,-0.44
2023-02-05T02:25:44.555Z,-0.57
2023-02-05T02:28:37.047Z,-0.59
2023-02-05T02:31:38.309Z,-0.63
2023-02-05T02:34:15.379Z,-0.57
2023-02-05T02:36:58.763Z,-0.56
2023-02-05T02:39:40.406Z,-0.57
2023-02-05T02:42:23.174Z,-0.63
2023-02-05T02:44:59.864Z,-0.67
2023-02-05T02:47:31.643Z,-0.50
2023-02-05T02:50:40.695Z,-0.53
2023-02-05T02:53:12.637Z,-0.52
2023-02-05T02:55:47.679Z,-0.49
2023-02-05T02:58:24.422Z,-0.41
2023-02-05T03:00:55.481Z,-0.41
2023-02-05T03:03:30.067Z,-0.32
2023-02-05T03:06:26.090Z,-0.22
2023-02-05T03:09:09.454Z,-0.29
2023-02-05T03:11:36.839Z,-0.27
2023-02-05T03:14:28.773Z,-0.52
2023-02-05T03:17:22.412Z,-0.38
2023-02-05T03:20:02.005Z,-0.35
2023-02-05T03:22:30.760Z,-0.37
2023-02-05T03:24:58.775Z,-0.35
2023-02-05T03:27:26.846Z,-0.31
2023-02-05T03:30:02.444Z,-0.22
2023-02-05T03:32:55.201Z,-0.41
2023-02-05T03:39:20.249Z,-0.21
2023-02-05T03:42:24.783Z,-0.34
2023-02-05T03:45:10.823Z,-0.37
2023-02-05T03:48:08.780Z,-0.34
2023-02-05T03:51:02.855Z,-0.19
2023-02-05T03:54:16.648Z,-0.21
2023-02-05T03:56:59.622Z,-0.34
2023-02-05T03:59:30.089Z,-0.38
2023-02-05T04:02:04.820Z,-0.39
2023-02-05T04:04:36.796Z,-0.31
2023-02-05T04:07:04.734Z,-0.42
2023-02-05T04:09:32.711Z,-0.39
2023-02-05T04:12:00.736Z,-0.39
2023-02-05T04:14:28.734Z,-0.31
2023-02-05T04:16:56.802Z,-0.39
2023-02-05T04:19:26.879Z,-0.35
2023-02-05T04:21:56.749Z,-0.29
2023-02-05T04:27:16.682Z,-0.25
2023-02-05T04:29:49.767Z,-0.32
2023-02-05T04:32:22.715Z,-0.17
2023-02-05T04:34:56.733Z,-0.11
2023-02-05T04:37:25.187Z,-0.22
2023-02-05T04:39:52.677Z,-0.18
2023-02-05T04:42:20.772Z,-0.31
2023-02-05T04:44:48.795Z,-0.29
2023-02-05T04:47:21.747Z,-0.35
2023-02-05T04:49:48.690Z,-0.39
2023-02-05T04:52:16.714Z,-0.38
2023-02-05T04:57:36.971Z,-0.44
2023-02-05T05:00:05.117Z,-0.42
2023-02-05T05:02:32.799Z,-0.41
2023-02-05T05:05:24.734Z,-0.39
2023-02-05T05:07:52.723Z,-0.41
2023-02-05T05:10:20.732Z,-0.29
2023-02-05T05:12:53.759Z,-0.28
2023-02-05T05:15:20.691Z,-0.48
2023-02-05T05:17:48.864Z,-0.35
2023-02-05T05:20:17.110Z,-0.25
2023-02-05T05:22:44.777Z,-0.24
2023-02-05T05:28:17.113Z,-0.32
2023-02-05T05:30:45.988Z,-0.31
2023-02-05T05:33:15.318Z,-0.19
2023-02-05T05:35:42.702Z,-0.21
2023-02-05T05:44:14.840Z,-0.18
2023-02-05T05:46:42.723Z,-0.15
2023-02-05T05:49:10.716Z,-0.22
2023-02-05T05:51:38.720Z,-0.19
2023-02-05T05:54:06.829Z,-0.15
2023-02-05T05:56:37.666Z,-0.01
2023-02-05T05:59:05.138Z,-0.07
2023-02-05T06:01:33.350Z,0.04
2023-02-05T06:06:54.140Z,-0.03
2023-02-05T06:09:31.768Z,-0.10
2023-02-05T06:11:58.723Z,0.10
2023-02-05T06:17:18.763Z,-0.06
2023-02-05T06:22:40.475Z,-0.13
2023-02-05T06:25:13.775Z,-0.17
2023-02-05T06:27:40.733Z,-0.17
2023-02-05T06:30:09.461Z,-0.15
2023-02-05T06:32:36.868Z,-0.08
2023-02-05T06:35:05.226Z,-0.06
2023-02-05T06:37:47.234Z,-0.08
2023-02-05T06:40:27.420Z,-0.11
2023-02-05T06:42:55.228Z,-0.10
2023-02-05T06:45:22.938Z,-0.01
2023-02-05T06:51:06.750Z,0.03
2023-02-05T06:53:34.798Z,0.04
2023-02-05T06:56:02.726Z,0.24
2023-02-05T06:58:56.030Z,0.33
2023-02-05T07:01:53.831Z,0.24
2023-02-05T07:04:26.865Z,0.21
2023-02-05T07:06:59.920Z,0.10
2023-02-05T07:09:26.796Z,0.16
2023-02-05T07:12:20.762Z,0.09
2023-02-05T07:14:48.836Z,0.04
2023-02-05T07:17:20.942Z,0.10
2023-02-05T07:19:48.725Z,-0.13
2023-02-05T07:22:16.789Z,-0.07
2023-02-05T07:24:44.726Z,0.01
2023-02-05T07:27:36.707Z,0.19
2023-02-05T07:30:05.473Z,0.09
2023-02-05T07:32:32.777Z,-0.06
2023-02-05T07:35:00.698Z,0.04
2023-02-05T07:37:33.753Z,-0.08
2023-02-05T07:40:00.692Z,0.01
2023-02-05T07:42:31.324Z,0.01
2023-02-05T07:45:00.729Z,0.13
2023-02-05T07:47:28.782Z,0.09
2023-02-05T07:49:56.718Z,0.21
2023-02-05T07:52:24.740Z,0.34
2023-02-05T07:54:57.769Z,0.40
2023-02-05T07:57:26.529Z,0.47
2023-02-05T08:02:51.740Z,0.40
2023-02-05T08:05:43.811Z,0.36
2023-02-05T08:08:12.410Z,0.33
2023-02-05T08:10:44.686Z,0.44
2023-02-05T08:13:14.546Z,0.40
2023-02-05T08:15:46.700Z,0.47
2023-02-05T08:21:32.722Z,0.66
2023-02-05T08:24:06.708Z,0.45
2023-02-05T08:26:34.758Z,0.47
2023-02-05T08:29:03.253Z,0.58
2023-02-05T08:31:30.771Z,0.55
2023-02-05T08:34:00.113Z,0.51
2023-02-05T08:36:28.742Z,0.45
2023-02-05T08:42:45.525Z,0.62
2023-02-05T08:45:12.858Z,0.68
2023-02-05T08:47:40.750Z,0.66
2023-02-05T08:50:15.006Z,0.72
2023-02-05T08:53:08.723Z,0.66
2023-02-05T08:55:36.707Z,0.72
2023-02-05T08:58:04.699Z,0.65
2023-02-05T09:00:33.298Z,0.97
2023-02-05T09:03:00.685Z,0.90
2023-02-05T09:05:32.948Z,0.92
2023-02-05T09:08:00.746Z,1.04
2023-02-05T09:10:28.840Z,1.11
2023-02-05T09:12:56.724Z,1.10
2023-02-05T09:15:24.873Z,0.94
2023-02-05T09:17:52.767Z,1.17
2023-02-05T09:23:14.603Z,1.31
2023-02-05T09:25:43.328Z,1.34
2023-02-05T09:28:18.035Z,1.20
2023-02-05T09:30:46.433Z,1.20
2023-02-05T09:33:18.754Z,1.01
2023-02-05T09:35:47.099Z,1.30
2023-02-05T09:38:20.793Z,1.45
2023-02-05T09:40:59.945Z,1.51
2023-02-05T09:43:44.117Z,1.45
2023-02-05T09:50:01.638Z,1.59
2023-02-05T09:52:38.400Z,1.56
2023-02-05T09:55:26.286Z,1.70
2023-02-05T09:58:07.384Z,1.69
2023-02-05T10:00:47.809Z,1.78
2023-02-05T10:03:53.529Z,1.89
2023-02-05T10:07:02.467Z,1.93
2023-02-05T10:09:59.868Z,1.86
2023-02-05T10:12:32.678Z,1.96
2023-02-05T10:15:19.630Z,2.00
2023-02-05T10:21:18.981Z,2.13
2023-02-05T10:24:24.573Z,2.17
2023-02-05T10:26:58.005Z,2.08
2023-02-05T10:29:50.621Z,2.25
2023-02-05T10:32:34.720Z,2.22
2023-02-05T10:35:08.899Z,2.13
2023-02-05T10:37:58.165Z,2.03
2023-02-05T10:40:39.589Z,2.24
2023-02-05T10:43:30.284Z,2.38
2023-02-05T10:49:15.646Z,2.71
2023-02-05T10:52:12.397Z,2.55
2023-02-05T10:55:05.214Z,2.68
2023-02-05T11:00:26.846Z,2.55
2023-02-05T11:02:59.775Z,2.92
2023-02-05T11:05:35.855Z,2.93
2023-02-05T11:08:03.193Z,3.15
2023-02-05T11:10:34.967Z,3.17
2023-02-05T11:13:13.725Z,3.03
2023-02-05T11:16:00.503Z,3.05
2023-02-05T11:18:35.873Z,3.30
2023-02-05T11:27:40.316Z,3.30
2023-02-05T11:30:52.177Z,3.37
2023-02-05T11:33:27.062Z,3.38
2023-02-05T11:36:09.337Z,3.07
2023-02-05T11:38:59.314Z,3.14
2023-02-05T11:41:28.326Z,2.59
2023-02-05T11:44:03.338Z,3.07
2023-02-05T11:46:42.385Z,3.27
2023-02-05T11:49:22.771Z,3.39
2023-02-05T11:51:54.243Z,3.45
2023-02-05T11:54:31.592Z,2.96
2023-02-05T11:57:14.568Z,3.34
2023-02-05T11:59:55.338Z,2.87
2023-02-05T12:02:25.704Z,2.38
2023-02-05T12:05:24.417Z,2.92
2023-02-05T12:08:01.845Z,3.32
2023-02-05T12:10:50.181Z,3.08
2023-02-05T12:13:25.769Z,3.24
2023-02-05T12:16:16.308Z,3.30
2023-02-05T12:19:24.223Z,2.62
2023-02-05T12:22:15.575Z,3.12
2023-02-05T12:25:11.943Z,3.20
2023-02-05T12:28:00.590Z,2.99
2023-02-05T12:30:43.969Z,3.37
2023-02-05T12:33:28.365Z,3.51
2023-02-05T12:36:02.618Z,3.55
2023-02-05T12:39:08.534Z,3.76
2023-02-05T12:41:57.309Z,3.82
2023-02-05T12:44:52.260Z,3.15
2023-02-05T12:47:59.510Z,2.59
2023-02-05T12:53:53.752Z,3.03
2023-02-05T12:56:40.260Z,3.04
2023-02-05T13:02:32.418Z,3.04
2023-02-05T13:05:18.030Z,3.07
2023-02-05T13:08:08.455Z,3.56
2023-02-05T13:11:07.814Z,3.65
2023-02-05T13:13:51.600Z,3.63
2023-02-05T13:16:55.166Z,3.42
2023-02-05T13:19:40.885Z,3.77
2023-02-05T13:22:40.684Z,3.80
2023-02-05T13:25:44.733Z,3.94
2023-02-05T13:28:42.445Z,3.94
2023-02-05T13:31:19.818Z,4.06
2023-02-05T13:33:47.128Z,4.15
2023-02-05T13:36:23.966Z,4.26
2023-02-05T13:39:34.392Z,4.13
2023-02-05T13:42:06.205Z,3.30
2023-02-05T13:44:52.961Z,3.89
2023-02-05T13:47:45.333Z,4.01
2023-02-05T13:50:52.287Z,4.10
2023-02-05T13:53:36.506Z,4.26
2023-02-05T13:56:04.697Z,4.34
2023-02-05T13:58:45.107Z,4.44
2023-02-05T14:01:31.832Z,4.45
2023-02-05T14:04:01.973Z,4.48
2023-02-05T14:06:39.834Z,4.45
2023-02-05T14:09:21.273Z,4.31
2023-02-05T14:11:59.221Z,4.48
2023-02-05T14:14:32.080Z,4.51
2023-02-05T14:17:00.580Z,4.44
2023-02-05T14:19:31.711Z,4.56
2023-02-05T14:22:07.738Z,4.56
2023-02-05T14:24:49.226Z,4.63
2023-02-05T14:27:37.939Z,4.49
2023-02-05T14:30:29.740Z,4.46
2023-02-05T14:33:22.710Z,4.44
2023-02-05T14:39:24.340Z,4.83
2023-02-05T14:41:58.627Z,4.66
2023-02-05T14:44:33.295Z,4.62
2023-02-05T14:47:22.907Z,4.62
2023-02-05T14:50:27.889Z,4.61
2023-02-05T14:56:36.276Z,4.49
2023-02-05T14:59:17.739Z,4.55
2023-02-05T15:01:49.942Z,4.55
2023-02-05T15:04:50.422Z,4.51
2023-02-05T15:07:27.078Z,4.52
2023-02-05T15:10:02.415Z,4.35
2023-02-05T15:12:35.627Z,4.44
2023-02-05T15:15:40.057Z,4.41
2023-02-05T15:18:24.076Z,4.41
2023-02-05T15:20:52.950Z,4.34
2023-02-05T15:23:35.405Z,4.35
2023-02-05T15:26:14.989Z,4.31
2023-02-05T15:28:55.964Z,4.25
2023-02-05T15:32:01.840Z,4.20
2023-02-05T15:34:39.540Z,4.22
2023-02-05T15:37:20.953Z,4.08
2023-02-05T15:40:16.590Z,4.21
2023-02-05T15:43:19.832Z,4.15
2023-02-05T15:48:45.696Z,4.10
2023-02-05T15:51:22.041Z,4.10
2023-02-05T15:56:43.010Z,4.06
2023-02-05T15:59:10.693Z,4.10
2023-02-05T16:01:49.863Z,4.03
2023-02-05T16:07:24.402Z,3.97
2023-02-05T16:09:56.485Z,4.04
2023-02-05T16:12:32.505Z,3.98
2023-02-05T16:15:03.382Z,3.82
2023-02-05T16:17:45.283Z,3.91
2023-02-05T16:20:53.774Z,3.94
2023-02-05T16:23:35.425Z,3.93
2023-02-05T16:26:10.607Z,3.87
2023-02-05T16:28:46.233Z,3.86
2023-02-05T16:31:21.300Z,3.80
2023-02-05T16:34:19.663Z,3.89
2023-02-05T16:36:50.340Z,3.85
2023-02-05T16:39:29.604Z,3.87
2023-02-05T16:42:05.866Z,3.79
2023-02-05T16:44:38.696Z,3.58
2023-02-05T16:47:35.814Z,3.73
2023-02-05T16:50:37.342Z,3.79
2023-02-05T16:53:15.835Z,3.82
2023-02-05T16:55:43.865Z,3.76
2023-02-05T16:58:21.235Z,3.76
2023-02-05T17:01:00.383Z,3.72
2023-02-05T17:03:34.258Z,3.70
2023-02-05T17:06:20.850Z,3.70
2023-02-05T17:08:55.034Z,3.77
2023-02-05T17:11:37.622Z,3.72
2023-02-05T17:14:26.719Z,3.56
2023-02-05T17:17:19.425Z,3.55
2023-02-05T17:20:11.980Z,3.66
2023-02-05T17:22:38.845Z,3.62
2023-02-05T17:25:10.838Z,3.51
2023-02-05T17:27:42.748Z,3.58
2023-02-05T17:30:17.408Z,3.52
2023-02-05T17:32:55.499Z,3.55
2023-02-05T17:35:24.636Z,3.58
2023-02-05T17:37:53.625Z,3.63
2023-02-05T17:40:20.877Z,3.58
2023-02-05T17:42:48.743Z,3.59
2023-02-05T17:45:22.718Z,3.56
2023-02-05T17:47:51.083Z,3.62
2023-02-05T17:50:19.870Z,3.59
2023-02-05T17:52:46.771Z,3.56
2023-02-05T17:55:44.117Z,3.58
2023-02-05T17:58:13.009Z,3.63
2023-02-05T18:01:05.495Z,3.60
2023-02-05T18:03:44.253Z,3.55
2023-02-05T18:06:14.037Z,3.58
2023-02-05T18:08:42.115Z,3.55
2023-02-05T18:14:06.917Z,3.48
2023-02-05T18:16:34.914Z,3.52
2023-02-05T18:19:02.738Z,3.62
2023-02-05T18:24:46.728Z,3.45
2023-02-05T18:27:19.064Z,3.42
2023-02-05T18:29:46.807Z,3.45
2023-02-05T18:32:14.769Z,3.42
2023-02-05T18:34:42.928Z,3.45
2023-02-05T18:37:11.935Z,3.34
2023-02-05T18:39:38.687Z,3.35
2023-02-05T18:42:30.696Z,3.34
2023-02-05T18:44:58.701Z,3.44
2023-02-05T18:47:26.808Z,3.39
2023-02-05T18:49:57.416Z,3.37
2023-02-05T18:52:31.612Z,3.37
2023-02-05T18:55:03.726Z,3.44
2023-02-05T18:57:30.694Z,3.35
2023-02-05T18:59:58.826Z,3.37
2023-02-05T19:02:26.889Z,3.39
2023-02-05T19:04:57.006Z,3.34
2023-02-05T19:07:24.889Z,3.32
2023-02-05T19:09:58.064Z,3.31
2023-02-05T19:12:24.728Z,3.45
2023-02-05T19:14:52.844Z,3.35
2023-02-05T19:17:21.300Z,3.37
2023-02-05T19:19:55.634Z,3.35
2023-02-05T19:22:27.896Z,3.38
2023-02-05T19:24:54.774Z,3.34
2023-02-05T19:27:22.795Z,3.25
2023-02-05T19:29:55.683Z,3.14
2023-02-05T19:32:23.959Z,3.12
2023-02-05T19:37:42.742Z,3.04
2023-02-05T19:40:12.567Z,3.00
2023-02-05T19:42:41.583Z,2.99
2023-02-05T19:45:09.014Z,2.97
2023-02-05T19:47:36.981Z,2.94
2023-02-05T19:50:10.595Z,2.92
2023-02-05T19:52:38.709Z,2.97
2023-02-05T19:55:06.841Z,2.86
2023-02-05T19:57:34.905Z,2.82
2023-02-05T20:00:03.654Z,2.76
2023-02-05T20:02:43.922Z,2.77
2023-02-05T20:05:10.754Z,2.83
2023-02-05T20:07:42.917Z,2.69
2023-02-05T20:10:10.707Z,2.82
2023-02-05T20:12:38.787Z,2.80
2023-02-05T20:15:07.384Z,2.77
2023-02-05T20:17:34.712Z,2.82
2023-02-05T20:20:13.979Z,2.80
2023-02-05T20:22:50.199Z,2.72
2023-02-05T20:25:18.724Z,2.69
2023-02-05T20:27:46.769Z,2.73
2023-02-05T20:30:33.026Z,2.73
2023-02-05T20:33:00.824Z,2.84
2023-02-05T20:35:28.686Z,2.83
2023-02-05T20:37:56.728Z,2.79
2023-02-05T20:40:24.885Z,2.73
2023-02-05T20:42:52.726Z,2.82
2023-02-05T20:45:20.772Z,2.92
2023-02-05T20:48:12.728Z,2.84
2023-02-05T20:50:40.710Z,2.76
2023-02-05T20:53:08.710Z,2.73
2023-02-05T20:55:36.801Z,2.73
2023-02-05T20:58:04.693Z,2.72
2023-02-05T21:00:37.191Z,2.77
2023-02-05T21:03:04.699Z,2.69
2023-02-05T21:05:32.744Z,2.79
2023-02-05T21:08:00.702Z,2.82
2023-02-05T21:10:32.916Z,2.86
2023-02-05T21:13:00.715Z,2.90
2023-02-05T21:15:56.510Z,2.75
2023-02-05T21:18:26.608Z,2.87
2023-02-05T21:23:57.280Z,2.77
2023-02-05T21:26:29.786Z,2.79
2023-02-05T21:28:59.372Z,2.73
2023-02-05T21:31:35.211Z,2.72
2023-02-05T21:34:04.025Z,2.77
2023-02-05T21:36:31.166Z,2.68
2023-02-05T21:39:04.892Z,2.59
2023-02-05T21:41:38.032Z,2.51
2023-02-05T21:44:05.039Z,2.51
2023-02-05T21:46:37.705Z,2.69
2023-02-05T21:49:07.291Z,2.61
2023-02-05T21:51:42.378Z,2.48
2023-02-05T21:54:11.559Z,2.35
2023-02-05T21:56:41.333Z,2.62
2023-02-05T21:59:10.881Z,2.35
2023-02-05T22:01:39.044Z,2.28
2023-02-05T22:07:08.774Z,2.15
2023-02-05T22:12:28.740Z,2.15
2023-02-05T22:14:56.740Z,2.25
2023-02-05T22:17:29.743Z,2.27
2023-02-05T22:19:56.767Z,2.24
2023-02-05T22:22:28.721Z,2.28
2023-02-05T22:24:57.301Z,2.01
2023-02-05T22:27:24.749Z,1.96
2023-02-05T22:29:52.712Z,2.08
2023-02-05T22:32:24.881Z,2.01
2023-02-05T22:34:54.276Z,1.94
2023-02-05T22:37:22.713Z,1.89
2023-02-05T22:39:50.767Z,1.83
2023-02-05T22:42:24.794Z,1.80
2023-02-05T22:44:54.208Z,1.63
2023-02-05T22:47:22.808Z,1.72
2023-02-05T22:49:50.805Z,1.73
2023-02-05T22:52:18.709Z,1.69
2023-02-05T22:54:51.716Z,1.55
2023-02-05T22:57:18.771Z,1.44
2023-02-05T23:02:38.936Z,1.37
2023-02-05T23:05:10.852Z,1.54
2023-02-05T23:07:39.074Z,1.51
2023-02-05T23:10:07.111Z,1.47
2023-02-05T23:12:34.672Z,1.51
2023-02-05T23:15:02.807Z,1.45
2023-02-05T23:17:59.702Z,1.45
2023-02-05T23:20:26.951Z,1.31
2023-02-05T23:22:55.057Z,1.41
2023-02-05T23:25:22.963Z,1.28
2023-02-05T23:27:54.786Z,1.31
2023-02-05T23:30:23.004Z,1.38
2023-02-05T23:32:50.703Z,1.31
2023-02-05T23:35:18.756Z,1.35
2023-02-05T23:40:38.978Z,1.27
2023-02-05T23:43:15.785Z,1.21
2023-02-05T23:45:47.928Z,1.21
2023-02-05T23:48:14.733Z,1.20
2023-02-05T23:50:43.693Z,1.17
2023-02-05T23:56:29.576Z,1.00
2023-02-05T23:59:02.515Z,1.08
